.
WxDataArchive / Data Records for 2014-11-07
2014-11-06 November 2014 2014-11-08

Data Records for Friday, 07 November 2014

Time	Temp	Chill	HIndex	Humid	Dewpt	 Wind 	HiWind	WindDir	Rain 	Barom
-----	----	-----	------	-----	-----	------	------	-------	-----	-----
00:00	39.5	39.5	39.5	77	32.9	2	7	292	0.00	30.063 
00:05	39.5	39.5	39.5	77	32.9	2	9	292	0.00	30.063 
00:10	39.5	39.5	39.5	77	32.9	2	6	0	0.00	30.063 
00:15	39.5	39.5	39.5	77	32.9	1	5	338	0.00	30.066 
00:20	39.3	39.3	39.3	77	32.7	2	6	338	0.00	30.066 
00:25	39.2	39.2	39.2	76	32.3	2	6	292	0.00	30.066 
00:30	39.2	39.2	39.2	76	32.3	1	4	292	0.00	30.066 
00:35	39.1	39.1	39.1	76	32.2	1	5	292	0.00	30.066 
00:40	39.1	39.1	39.1	76	32.2	2	6	292	0.00	30.066 
00:45	39.1	39.1	39.1	77	32.5	1	3	315	0.00	30.067 
00:50	38.9	38.9	38.9	77	32.3	1	4	315	0.00	30.067 
00:55	38.9	38.9	38.9	77	32.3	1	4	315	0.00	30.067 
01:00	38.8	38.8	38.8	77	32.2	1	4	315	0.00	30.066 
01:05	38.8	38.8	38.8	77	32.2	2	4	315	0.00	30.066 
01:10	38.6	38.6	38.6	77	32.0	1	3	315	0.00	30.066 
01:15	38.6	38.6	38.6	77	32.0	1	3	315	0.00	30.070 
01:20	38.5	38.5	38.5	76	31.6	2	6	315	0.00	30.070 
01:25	38.5	38.5	38.5	75	31.3	2	6	292	0.00	30.070 
01:30	38.5	38.5	38.5	75	31.3	1	5	315	0.00	30.076 
01:35	38.3	38.3	38.3	74	30.8	2	4	315	0.00	30.076 
01:40	38.0	38.0	38.0	74	30.5	1	4	315	0.00	30.076 
01:45	37.9	37.9	37.9	73	30.0	1	4	315	0.00	30.083 
01:50	37.6	37.6	37.6	73	29.7	2	6	292	0.00	30.083 
01:55	37.5	37.5	37.5	72	29.3	1	4	292	0.00	30.083 
02:00	37.2	37.2	37.2	72	29.0	1	5	292	0.00	30.085 
02:05	37.0	37.0	37.0	69	27.8	2	5	338	0.00	30.085 
02:10	36.9	36.9	36.9	69	27.7	3	7	292	0.00	30.085 
02:15	36.6	36.6	36.6	68	27.1	2	5	315	0.00	30.086 
02:20	36.5	36.5	36.5	68	27.0	2	5	315	0.00	30.086 
02:25	36.5	36.5	36.5	68	27.0	2	6	315	0.00	30.086 
02:30	36.3	36.3	36.3	67	26.4	3	7	292	0.00	30.090 
02:35	36.3	36.3	36.3	67	26.4	2	5	292	0.00	30.090 
02:40	36.2	36.2	36.2	67	26.3	1	4	338	0.00	30.090 
02:45	36.0	36.0	36.0	68	26.5	1	4	338	0.00	30.100 
02:50	35.9	35.9	35.9	68	26.4	0	3	315	0.00	30.100 
02:55	35.8	35.8	35.8	69	26.6	0	2	315	0.00	30.100 
03:00	35.5	35.5	35.5	69	26.4	0	3	315	0.00	30.103 
03:05	35.5	35.5	35.5	70	26.7	0	2	315	0.00	30.103 
03:10	35.3	35.3	35.3	70	26.5	0	4	338	0.00	30.103 
03:15	35.2	35.2	35.2	70	26.4	0	2	338	0.00	30.104 
03:20	35.2	35.2	35.2	71	26.8	0	3	338	0.00	30.104 
03:25	34.9	34.9	34.9	71	26.5	0	1	338	0.00	30.104 
03:30	34.7	34.7	34.7	72	26.6	0	1	338	0.00	30.102 
03:35	34.6	34.6	34.6	73	26.9	0	3	338	0.00	30.102 
03:40	34.4	34.4	34.4	73	26.7	0	1	338	0.00	30.102 
03:45	34.3	34.3	34.3	74	26.9	0	1	338	0.00	30.106 
03:50	34.1	34.1	34.1	75	27.0	0	2	338	0.00	30.106 
03:55	34.0	34.0	34.0	75	26.9	0	1	338	0.00	30.106 
04:00	33.8	33.8	33.8	76	27.1	0	1	338	0.00	30.117 
04:05	33.7	33.7	33.7	76	27.0	0	4	292	0.00	30.117 
04:10	33.5	33.5	33.5	77	27.1	0	2	292	0.00	30.117 
04:15	33.5	33.5	33.5	77	27.1	0	3	292	0.00	30.121 
04:20	33.5	33.5	33.5	77	27.1	1	3	292	0.00	30.121 
04:25	33.5	33.5	33.5	77	27.1	0	3	292	0.00	30.121 
04:30	33.4	33.4	33.4	77	27.0	0	1	292	0.00	30.120 
04:35	33.4	33.4	33.4	77	27.0	0	1	292	0.00	30.120 
04:40	33.2	33.2	33.2	77	26.8	0	2	292	0.00	30.120 
04:45	33.2	33.2	33.2	77	26.8	0	1	292	0.00	30.120 
04:50	33.2	33.2	33.2	77	26.8	0	2	292	0.00	30.120 
04:55	33.2	33.2	33.2	77	26.8	0	1	292	0.00	30.120 
05:00	33.2	33.2	33.2	76	26.5	0	2	292	0.00	30.114 
05:05	33.1	33.1	33.1	76	26.4	0	1	292	0.00	30.114 
05:10	33.2	33.2	33.2	76	26.5	0	1	292	0.00	30.114 
05:15	33.2	33.2	33.2	76	26.5	0	1	292	0.00	30.121 
05:20	33.1	33.1	33.1	76	26.4	0	0	---	0.00	30.121 
05:25	33.1	33.1	33.1	76	26.4	0	0	---	0.00	30.121 
05:30	32.9	32.9	32.9	76	26.2	0	1	292	0.00	30.131 
05:35	32.9	32.9	32.9	77	26.5	0	1	292	0.00	30.131 
05:40	32.9	32.9	32.9	77	26.5	0	1	292	0.00	30.131 
05:45	33.1	33.1	33.1	77	26.7	0	0	---	0.00	30.138 
05:50	33.1	33.1	33.1	78	27.0	0	0	---	0.00	30.138 
05:55	33.2	33.2	33.2	78	27.1	0	0	---	0.00	30.138 
06:00	33.2	33.2	33.2	78	27.1	0	0	---	0.00	30.135 
06:05	33.2	33.2	33.2	78	27.1	0	0	---	0.00	30.135 
06:10	33.2	33.2	33.2	79	27.4	0	0	---	0.00	30.135 
06:15	33.2	33.2	33.2	79	27.4	0	0	---	0.00	30.137 
06:20	33.1	33.1	33.1	80	27.6	0	0	---	0.00	30.137 
06:25	33.1	33.1	33.1	80	27.6	0	0	---	0.00	30.137 
06:30	33.2	33.2	33.2	80	27.7	0	0	---	0.00	30.141 
06:35	33.1	33.1	33.1	80	27.6	0	0	---	0.00	30.141 
06:40	33.1	33.1	33.1	80	27.6	0	0	---	0.00	30.141 
06:45	33.2	33.2	33.2	81	28.0	0	0	---	0.00	30.139 
06:50	33.2	33.2	33.2	81	28.0	0	0	---	0.00	30.139 
06:55	33.4	33.4	33.4	81	28.2	0	0	---	0.00	30.139 
07:00	33.5	33.5	33.5	81	28.3	0	0	---	0.00	30.142 
07:05	33.7	33.7	33.7	81	28.5	0	0	---	0.00	30.142 
07:10	33.8	33.8	33.8	81	28.6	0	0	---	0.00	30.142 
07:15	34.0	34.0	34.0	81	28.8	0	0	---	0.00	30.142 
07:20	34.1	34.1	34.1	81	28.9	0	0	---	0.00	30.142 
07:25	34.1	34.1	34.1	81	28.9	0	0	---	0.00	30.142 
07:30	34.3	34.3	34.3	81	29.1	0	0	---	0.00	30.142 
07:35	34.4	34.4	34.4	81	29.2	0	0	---	0.00	30.142 
07:40	34.6	34.6	34.6	81	29.4	0	1	292	0.00	30.142 
07:45	34.7	34.7	34.7	81	29.5	0	1	292	0.00	30.151 
07:50	34.9	34.9	34.9	81	29.7	0	0	---	0.00	30.151 
07:55	35.0	35.0	35.0	81	29.8	0	0	---	0.00	30.151 
08:00	35.2	35.2	35.2	80	29.7	0	0	---	0.00	30.149 
08:05	35.5	35.5	35.5	80	30.0	0	1	292	0.00	30.149 
08:10	35.6	35.6	35.6	80	30.1	0	1	292	0.00	30.149 
08:15	35.8	35.8	35.8	80	30.2	0	0	---	0.00	30.148 
08:20	36.0	36.0	36.0	80	30.4	0	1	292	0.00	30.148 
08:25	36.2	36.2	36.2	80	30.6	0	1	292	0.00	30.148 
08:30	36.3	36.3	36.3	79	30.4	0	1	292	0.00	30.150 
08:35	36.6	36.6	36.6	79	30.7	0	1	292	0.00	30.150 
08:40	36.8	36.8	36.8	79	30.9	0	1	292	0.00	30.150 
08:45	37.0	37.0	37.0	78	30.8	0	1	292	0.00	30.152 
08:50	37.2	37.2	37.2	78	31.0	0	1	292	0.00	30.152 
08:55	37.2	37.2	37.2	77	30.7	0	2	292	0.00	30.152 
09:00	37.3	37.3	37.3	77	30.8	0	1	292	0.00	30.153 
09:05	37.6	37.6	37.6	77	31.1	0	1	292	0.00	30.153 
09:10	37.8	37.8	37.8	76	30.9	0	1	292	0.00	30.153 
09:15	37.9	37.9	37.9	76	31.0	0	1	292	0.00	30.157 
09:20	38.0	38.0	38.0	74	30.5	0	2	292	0.00	30.157 
09:25	38.2	38.2	38.2	74	30.7	1	2	292	0.00	30.157 
09:30	38.2	38.2	38.2	73	30.3	1	3	292	0.00	30.168 
09:35	38.2	38.2	38.2	73	30.3	1	4	292	0.00	30.168 
09:40	38.2	38.2	38.2	73	30.3	1	3	292	0.00	30.168 
09:45	38.2	38.2	38.2	74	30.7	1	3	292	0.00	30.171 
09:50	38.3	38.3	38.3	73	30.4	0	3	292	0.00	30.171 
09:55	38.5	38.5	38.5	73	30.6	1	3	270	0.00	30.171 
10:00	38.5	38.5	38.5	73	30.6	1	3	270	0.00	30.169 
10:05	38.6	38.6	38.6	74	31.0	0	1	270	0.00	30.169 
10:10	38.8	38.8	38.8	73	30.9	0	2	270	0.00	30.169 
10:15	38.9	38.9	38.9	72	30.7	0	2	270	0.00	30.167 
10:20	39.1	39.1	39.1	72	30.8	0	2	270	0.00	30.167 
10:25	39.2	39.2	39.2	70	30.3	0	2	270	0.00	30.167 
10:30	39.3	39.3	39.3	69	30.0	0	2	270	0.00	30.168 
10:35	39.6	39.6	39.6	69	30.3	1	3	270	0.00	30.168 
10:40	39.5	39.5	39.5	68	29.8	1	2	270	0.00	30.168 
10:45	39.6	39.6	39.6	68	29.9	1	3	270	0.00	30.166 
10:50	39.9	39.9	39.9	68	30.2	0	2	270	0.00	30.166 
10:55	40.2	40.2	40.2	68	30.5	0	2	270	0.00	30.166 
11:00	40.3	40.3	40.3	67	30.2	0	1	270	0.00	30.164 
11:05	40.6	40.6	40.6	66	30.1	0	2	270	0.00	30.164 
11:10	40.5	40.5	40.5	66	30.0	1	3	270	0.00	30.164 
11:15	40.5	40.5	40.5	67	30.4	1	3	270	0.00	30.164 
11:20	40.6	40.6	40.6	67	30.5	0	2	270	0.00	30.164 
11:25	40.8	40.8	40.8	67	30.7	0	1	270	0.00	30.164 
11:30	40.6	40.6	40.6	66	30.1	0	2	270	0.00	30.155 
11:35	40.8	40.8	40.8	67	30.7	0	1	202	0.00	30.155 
11:40	40.8	40.8	40.8	67	30.7	0	2	248	0.00	30.155 
11:45	40.8	40.8	40.8	67	30.7	0	1	248	0.00	30.151 
11:50	40.9	40.9	40.9	68	31.2	0	2	248	0.00	30.151 
11:55	41.1	41.1	41.1	67	31.0	0	1	248	0.00	30.151 
12:00	40.9	40.9	40.9	67	30.8	1	3	248	0.00	30.143 
12:05	40.9	40.9	40.9	66	30.4	0	4	315	0.00	30.143 
12:10	41.1	41.1	41.1	65	30.2	1	4	292	0.00	30.143 
12:15	41.1	41.1	41.1	66	30.6	0	3	292	0.00	30.138 
12:20	41.2	41.2	41.2	66	30.7	0	2	292	0.00	30.138 
12:25	41.2	41.2	41.2	66	30.7	0	2	292	0.00	30.138 
12:30	41.2	41.2	41.2	66	30.7	0	2	292	0.00	30.131 
12:35	41.3	41.3	41.3	67	31.2	0	2	292	0.00	30.131 
12:40	41.2	41.2	41.2	64	30.0	1	4	315	0.00	30.131 
12:45	41.1	41.1	41.1	64	29.9	0	2	315	0.00	30.121 
12:50	40.8	40.8	40.8	66	30.3	1	2	315	0.00	30.121 
12:55	40.6	40.6	40.6	67	30.5	0	2	315	0.00	30.121 
13:00	40.6	40.6	40.6	68	30.9	0	2	315	0.00	30.109 
13:05	40.6	40.6	40.6	68	30.9	0	2	315	0.00	30.109 
13:10	40.8	40.8	40.8	68	31.1	0	2	315	0.00	30.109 
13:15	40.9	40.9	40.9	72	32.6	1	3	315	0.00	30.104 
13:20	40.9	40.9	40.9	74	33.3	0	2	315	0.00	30.104 
13:25	41.2	41.2	41.2	73	33.2	0	2	315	0.00	30.104 
13:30	41.3	41.3	41.3	72	33.0	0	2	315	0.00	30.095 
13:35	41.6	41.6	41.6	71	32.9	0	2	315	0.00	30.095 
13:40	41.6	41.6	41.6	71	32.9	0	1	315	0.00	30.095 
13:45	41.8	41.8	41.8	70	32.7	0	1	315	0.00	30.095 
13:50	41.8	41.8	41.8	68	32.0	0	1	315	0.00	30.095 
13:55	41.6	41.6	41.6	67	31.5	0	1	315	0.00	30.095 
14:00	41.5	41.5	41.5	67	31.4	1	4	315	0.00	30.091 
14:05	41.5	41.5	41.5	67	31.4	0	2	315	0.00	30.091 
14:10	41.5	41.5	41.5	66	31.0	0	1	315	0.00	30.091 
14:15	41.6	41.6	41.6	68	31.8	0	1	315	0.00	30.086 
14:20	41.8	41.8	41.8	68	32.0	0	2	315	0.00	30.086 
14:25	41.6	41.6	41.6	67	31.5	0	3	315	0.00	30.086 
14:30	41.8	41.8	41.8	69	32.4	0	2	315	0.00	30.080 
14:35	42.1	42.1	42.1	69	32.7	0	1	315	0.00	30.080 
14:40	42.1	42.1	42.1	68	32.3	0	1	315	0.00	30.080 
14:45	42.1	42.1	42.1	68	32.3	0	1	315	0.00	30.073 
14:50	42.1	42.1	42.1	67	31.9	0	1	315	0.00	30.073 
14:55	42.1	42.1	42.1	66	31.6	0	1	315	0.00	30.073 
15:00	42.1	42.1	42.1	66	31.6	0	0	---	0.00	30.071 
15:05	42.1	42.1	42.1	67	31.9	0	1	315	0.00	30.071 
15:10	41.9	41.9	41.9	65	31.0	0	1	315	0.00	30.071 
15:15	42.1	42.1	42.1	65	31.2	0	1	315	0.00	30.072 
15:20	42.1	42.1	42.1	66	31.6	0	1	315	0.00	30.072 
15:25	42.2	42.2	42.2	66	31.7	0	1	315	0.00	30.072 
15:30	42.1	42.1	42.1	65	31.2	0	2	315	0.00	30.068 
15:35	41.9	41.9	41.9	65	31.0	0	1	292	0.00	30.068 
15:40	41.9	41.9	41.9	64	30.6	0	2	292	0.00	30.068 
15:45	41.9	41.9	41.9	65	31.0	0	1	292	0.00	30.062 
15:50	41.9	41.9	41.9	65	31.0	0	1	292	0.00	30.062 
15:55	41.8	41.8	41.8	65	30.9	0	1	292	0.00	30.062 
16:00	41.9	41.9	41.9	66	31.4	0	0	---	0.00	30.063 
16:05	41.9	41.9	41.9	65	31.0	0	1	292	0.00	30.063 
16:10	41.9	41.9	41.9	65	31.0	0	0	---	0.00	30.063 
16:15	41.9	41.9	41.9	65	31.0	0	1	292	0.00	30.059 
16:20	41.9	41.9	41.9	65	31.0	0	2	292	0.00	30.059 
16:25	41.9	41.9	41.9	65	31.0	0	1	292	0.00	30.059 
16:30	41.9	41.9	41.9	65	31.0	0	0	---	0.00	30.054 
16:35	41.9	41.9	41.9	66	31.4	0	0	---	0.00	30.054 
16:40	41.9	41.9	41.9	66	31.4	0	0	---	0.00	30.054 
16:45	41.9	41.9	41.9	66	31.4	0	0	---	0.00	30.051 
16:50	41.8	41.8	41.8	67	31.7	0	0	---	0.00	30.051 
16:55	41.8	41.8	41.8	67	31.7	0	0	---	0.00	30.051 
17:00	41.6	41.6	41.6	66	31.1	0	1	292	0.00	30.043 
17:05	41.5	41.5	41.5	66	31.0	0	1	292	0.00	30.043 
17:10	41.5	41.5	41.5	66	31.0	0	2	202	0.00	30.043 
17:15	41.3	41.3	41.3	67	31.2	0	1	202	0.00	30.042 
17:20	41.2	41.2	41.2	67	31.1	0	1	202	0.00	30.042 
17:25	41.2	41.2	41.2	67	31.1	0	1	135	0.00	30.042 
17:30	41.1	41.1	41.1	67	31.0	0	1	135	0.00	30.028 
17:35	40.9	40.9	40.9	67	30.8	0	3	135	0.00	30.028 
17:40	40.8	40.8	40.8	67	30.7	0	1	135	0.00	30.028 
17:45	40.6	40.6	40.6	68	30.9	0	1	135	0.00	30.029 
17:50	40.3	40.3	40.3	69	31.0	0	0	---	0.00	30.029 
17:55	40.2	40.2	40.2	69	30.9	0	1	135	0.00	30.029 
18:00	40.1	40.1	40.1	70	31.1	0	0	---	0.00	30.034 
18:05	39.9	39.9	39.9	70	30.9	0	0	---	0.00	30.034 
18:10	39.9	39.9	39.9	70	30.9	0	0	---	0.00	30.034 
18:15	39.8	39.8	39.8	71	31.2	0	0	---	0.00	30.039 
18:20	39.6	39.6	39.6	71	31.0	0	0	---	0.00	30.039 
18:25	39.5	39.5	39.5	72	31.2	0	0	---	0.00	30.039 
18:30	39.3	39.3	39.3	72	31.0	0	0	---	0.00	30.036 
18:35	39.2	39.2	39.2	73	31.3	0	0	---	0.00	30.036 
18:40	39.1	39.1	39.1	74	31.5	0	0	---	0.00	30.036 
18:45	38.9	38.9	38.9	74	31.3	0	0	---	0.00	30.034 
18:50	38.8	38.8	38.8	74	31.2	0	0	---	0.00	30.034 
18:55	38.6	38.6	38.6	74	31.0	0	0	---	0.00	30.034 
19:00	38.6	38.6	38.6	74	31.0	0	0	---	0.00	30.047 
19:05	38.5	38.5	38.5	74	30.9	0	0	---	0.00	30.047 
19:10	38.5	38.5	38.5	75	31.3	0	0	---	0.00	30.047 
19:15	38.5	38.5	38.5	75	31.3	0	0	---	0.00	30.045 
19:20	38.3	38.3	38.3	76	31.4	0	0	---	0.00	30.045 
19:25	38.5	38.5	38.5	75	31.3	0	0	---	0.00	30.045 
19:30	38.5	38.5	38.5	75	31.3	0	1	135	0.00	30.040 
19:35	38.6	38.6	38.6	75	31.4	0	0	---	0.00	30.040 
19:40	38.6	38.6	38.6	74	31.0	0	0	---	0.00	30.040 
19:45	38.6	38.6	38.6	74	31.0	0	0	---	0.00	30.040 
19:50	38.8	38.8	38.8	74	31.2	0	0	---	0.00	30.040 
19:55	38.6	38.6	38.6	73	30.7	0	0	---	0.00	30.040 
20:00	38.8	38.8	38.8	73	30.9	0	0	---	0.00	30.045 
20:05	38.8	38.8	38.8	73	30.9	0	0	---	0.00	30.045 
20:10	38.8	38.8	38.8	73	30.9	0	1	135	0.00	30.045 
20:15	38.8	38.8	38.8	73	30.9	0	0	---	0.00	30.034 
20:20	38.8	38.8	38.8	73	30.9	0	0	---	0.00	30.034 
20:25	38.8	38.8	38.8	73	30.9	0	0	---	0.00	30.034 
20:30	38.8	38.8	38.8	73	30.9	0	1	135	0.00	30.025 
20:35	38.8	38.8	38.8	72	30.6	0	0	---	0.00	30.025 
20:40	38.8	38.8	38.8	72	30.6	0	0	---	0.00	30.025 
20:45	38.8	38.8	38.8	72	30.6	0	0	---	0.00	30.016 
20:50	38.8	38.8	38.8	72	30.6	0	0	---	0.00	30.016 
20:55	38.8	38.8	38.8	71	30.2	0	1	135	0.00	30.016 
21:00	38.8	38.8	38.8	71	30.2	0	1	135	0.00	30.010 
21:05	38.8	38.8	38.8	70	29.9	0	1	135	0.00	30.010 
21:10	38.8	38.8	38.8	70	29.9	0	0	---	0.00	30.010 
21:15	38.8	38.8	38.8	71	30.2	0	0	---	0.00	30.001 
21:20	38.8	38.8	38.8	71	30.2	0	0	---	0.00	30.001 
21:25	38.8	38.8	38.8	70	29.9	0	1	135	0.00	30.001 
21:30	38.8	38.8	38.8	69	29.5	0	1	135	0.00	29.992 
21:35	38.9	38.9	38.9	69	29.6	0	1	135	0.00	29.992 
21:40	38.9	38.9	38.9	69	29.6	0	1	135	0.00	29.992 
21:45	38.9	38.9	38.9	70	30.0	0	0	---	0.00	29.993 
21:50	38.9	38.9	38.9	70	30.0	0	0	---	0.00	29.993 
21:55	38.8	38.8	38.8	70	29.9	0	1	135	0.00	29.993 
22:00	38.8	38.8	38.8	69	29.5	0	1	135	0.00	29.989 
22:05	38.8	38.8	38.8	70	29.9	0	0	---	0.00	29.989 
22:10	38.8	38.8	38.8	70	29.9	0	0	---	0.00	29.989 
22:15	38.6	38.6	38.6	69	29.3	0	0	---	0.00	29.978 
22:20	38.6	38.6	38.6	69	29.3	0	0	---	0.00	29.978 
22:25	38.5	38.5	38.5	69	29.2	0	1	135	0.00	29.978 
22:30	38.5	38.5	38.5	70	29.6	0	1	135	0.00	29.969 
22:35	38.5	38.5	38.5	70	29.6	0	2	135	0.00	29.969 
22:40	38.5	38.5	38.5	70	29.6	0	3	90	0.00	29.969 
22:45	38.5	38.5	38.5	69	29.2	0	2	112	0.00	29.960 
22:50	38.5	38.5	38.5	70	29.6	0	1	112	0.00	29.960 
22:55	38.5	38.5	38.5	70	29.6	0	3	112	0.00	29.960 
23:00	38.3	38.3	38.3	70	29.4	0	3	112	0.00	29.945 
23:05	38.3	38.3	38.3	70	29.4	0	2	112	0.00	29.945 
23:10	38.3	38.3	38.3	70	29.4	0	1	112	0.00	29.945 
23:15	38.3	38.3	38.3	71	29.7	0	1	112	0.00	29.943 
23:20	38.2	38.2	38.2	71	29.6	0	2	112	0.00	29.943 
23:25	38.2	38.2	38.2	71	29.6	0	1	112	0.00	29.943 
23:30	38.2	38.2	38.2	71	29.6	0	3	112	0.00	29.931 
23:35	38.2	38.2	38.2	71	29.6	0	2	112	0.00	29.931 
23:40	38.2	38.2	38.2	71	29.6	0	1	112	0.00	29.931 
23:45	38.0	38.0	38.0	72	29.8	0	1	112	0.00	29.933 
23:50	38.0	38.0	38.0	72	29.8	0	2	112	0.00	29.933 
23:55	38.0	38.0	38.0	72	29.8	0	1	112	0.00	29.933 

CoCoRaHS
IN-AL-39
A2 Web Hosting
Creative Commons License
GoDaddy
search engine by freefind advanced

loaded 2018-11-12 14:45:24 • last modified 2010-11-18 10:43:29
Privacy PolicyDisclaimer
• wx.awcolley.com is powered by PmWiki v.2002016 •
• all content (unless otherwise noted) © 2018 A W Colley